Time;durP1;ratioP1;P1;durP2;ratioP2;P2;SDS_P1;SDS_P2;PMS_P1;PMS_P2;Temp;Humidity;BMP_temperature;BMP_pressure;BME280_temperature;BME280_humidity;BME280_pressure;Samples;Min_cycle;Max_cycle;Signal;HPM_P1;HPM_P2
2024/02/19 00:01:32;;;;;;;;;51.75;42.00;;;;;10.31;68.69;102102.84;146609;591;46021;-71
2024/02/19 00:04:24;;;;;;;;;52.25;42.00;;;;;10.23;68.62;102099.69;146603;606;46034;-72
2024/02/19 00:07:35;;;;;;;;;46.50;38.00;;;;;10.08;67.92;102085.56;146609;578;47010;-76
2024/02/19 00:10:35;;;;;;;;;36.25;33.00;;;;;10.08;68.55;102095.94;146604;603;46016;-75
2024/02/19 00:13:50;;;;;;;;;34.50;30.00;;;;;10.05;69.33;102099.19;146607;565;47010;-70
2024/02/19 00:16:46;;;;;;;;;29.25;26.75;;;;;10.00;69.51;102107.41;146603;574;47012;-81
2024/02/19 00:19:42;;;;;;;;;30.75;27.25;;;;;9.94;69.52;102095.81;146613;598;45020;-80
2024/02/19 00:22:40;;;;;;;;;29.50;27.00;;;;;9.93;70.15;102098.28;146610;602;45017;-75
2024/02/19 00:25:44;;;;;;;;;25.75;24.50;;;;;9.96;70.28;102093.31;146611;708;46020;-73
2024/02/19 00:28:46;;;;;;;;;29.25;25.00;;;;;10.02;69.94;102090.28;146605;625;46016;-71
2024/02/19 00:31:43;;;;;;;;;31.25;29.00;;;;;10.07;69.91;102092.44;146610;628;46020;-72
2024/02/19 00:34:38;;;;;;;;;44.50;35.75;;;;;10.14;70.09;102092.09;146603;580;47012;-73
2024/02/19 00:37:40;;;;;;;;;43.75;34.00;;;;;10.20;69.54;102086.50;146600;569;47029;-73
2024/02/19 00:40:41;;;;;;;;;35.25;31.25;;;;;10.25;69.14;102090.34;146605;630;46016;-75
2024/02/19 00:43:34;;;;;;;;;44.50;35.75;;;;;10.24;69.23;102085.91;146606;590;46020;-71
2024/02/19 00:46:30;;;;;;;;;36.00;31.25;;;;;10.26;69.14;102084.37;146605;594;46012;-78
2024/02/19 00:49:29;;;;;;;;;32.00;29.00;;;;;10.25;68.16;102082.56;146609;757;46010;-73
2024/02/19 00:52:44;;;;;;;;;46.25;34.00;;;;;10.21;68.43;102075.31;146605;575;46017;-72
2024/02/19 00:55:40;;;;;;;;;39.25;32.00;;;;;10.21;68.61;102079.59;146608;571;46020;-72
2024/02/19 00:58:41;;;;;;;;;36.00;32.25;;;;;10.18;68.80;102075.09;146606;574;46013;-72
2024/02/19 01:01:54;;;;;;;;;38.25;31.50;;;;;10.18;68.14;102073.41;146610;609;46010;-72
2024/02/19 01:04:53;;;;;;;;;34.25;31.50;;;;;10.18;68.76;102063.03;146608;581;46016;-73
2024/02/19 01:08:07;;;;;;;;;36.50;31.50;;;;;10.20;68.76;102068.34;146604;603;47010;-73
2024/02/19 01:11:12;;;;;;;;;62.50;49.50;;;;;10.19;67.94;102063.97;146606;589;46016;-75
2024/02/19 01:14:21;;;;;;;;;41.75;34.50;;;;;10.11;68.39;102060.78;146610;629;46021;-72
2024/02/19 01:17:35;;;;;;;;;48.50;40.50;;;;;10.04;68.47;102049.84;146606;605;46036;-73
2024/02/19 01:20:32;;;;;;;;;55.25;43.00;;;;;9.98;69.21;102045.12;146610;613;46020;-74
2024/02/19 01:23:33;;;;;;;;;49.75;40.50;;;;;9.94;68.84;102041.41;146603;683;46012;-74
2024/02/19 01:26:33;;;;;;;;;51.00;41.25;;;;;9.92;69.96;102035.19;146607;594;46029;-74
2024/02/19 01:29:30;;;;;;;;;55.25;44.00;;;;;9.89;70.01;102029.78;146602;579;46034;-73
2024/02/19 01:32:32;;;;;;;;;46.25;37.00;;;;;7.89;69.46;101678.25;146604;668;47010;-73
2024/02/19 01:35:45;;;;;;;;;37.75;31.00;;;;;9.85;70.52;102029.44;146602;642;47016;-74
2024/02/19 01:38:43;;;;;;;;;35.50;30.50;;;;;9.85;71.68;102029.44;146602;569;46010;-75
2024/02/19 01:41:42;;;;;;;;;35.00;29.00;;;;;9.85;71.20;102027.75;146604;582;46016;-75
2024/02/19 01:44:44;;;;;;;;;29.75;28.25;;;;;9.87;71.52;102022.66;146606;576;46026;-74
2024/02/19 01:47:45;;;;;;;;;37.75;33.00;;;;;9.87;72.02;102012.31;146603;572;46016;-75
2024/02/19 01:50:45;;;;;;;;;41.75;33.75;;;;;9.95;71.65;102018.97;146609;584;46011;-75
2024/02/19 01:53:45;;;;;;;;;35.50;30.75;;;;;10.00;71.56;102016.72;146602;592;46913;-77
2024/02/19 01:56:48;;;;;;;;;47.75;37.00;;;;;9.99;71.16;102007.13;146609;591;46020;-77
2024/02/19 01:59:47;;;;;;;;;47.50;35.50;;;;;10.01;71.49;102008.16;146599;571;47014;-75
2024/02/19 02:03:00;;;;;;;;;45.75;35.50;;;;;10.04;70.78;102008.41;146607;567;46020;-75
2024/02/19 02:06:11;;;;;;;;;39.25;33.75;;;;;10.06;71.74;102006.78;146602;574;46016;-73
2024/02/19 02:09:06;;;;;;;;;40.25;35.00;;;;;10.11;71.56;102002.87;146602;577;46020;-74
2024/02/19 02:12:02;;;;;;;;;37.50;31.25;;;;;10.11;71.93;102001.16;146599;654;47016;-75
2024/02/19 02:14:55;;;;;;;;;39.25;32.50;;;;;10.09;71.92;102004.44;146607;573;46020;-75
2024/02/19 02:17:48;;;;;;;;;35.75;30.00;;;;;10.07;72.23;102000.84;146601;641;47014;-74
2024/02/19 02:20:44;;;;;;;;;45.00;35.00;;;;;10.09;72.29;101996.66;146607;603;46021;-71
2024/02/19 02:23:39;;;;;;;;;35.75;29.50;;;;;10.12;72.52;101999.47;146603;585;46014;-71
2024/02/19 02:26:32;;;;;;;;;36.50;29.50;;;;;10.08;72.32;101981.91;146607;696;47010;-70
2024/02/19 02:29:39;;;;;;;;;36.75;31.00;;;;;10.10;72.35;101980.34;146601;660;47012;-74
2024/02/19 02:32:34;;;;;;;;;26.50;23.25;;;;;10.19;72.02;101991.38;146607;617;47010;-74
2024/02/19 02:35:40;;;;;;;;;36.50;30.00;;;;;10.22;72.02;101993.25;146601;570;47918;-71
2024/02/19 02:38:38;;;;;;;;;35.75;31.00;;;;;10.25;71.82;101994.41;146601;592;46020;-71
2024/02/19 02:41:35;;;;;;;;;37.25;31.00;;;;;10.25;72.29;101994.41;146604;572;47016;-72
2024/02/19 02:44:35;;;;;;;;;31.50;25.75;;;;;10.19;71.86;101991.38;146604;613;47012;-71
2024/02/19 02:47:31;;;;;;;;;27.00;23.75;;;;;10.16;71.99;101988.56;146608;705;46036;-71
2024/02/19 02:50:26;;;;;;;;;30.00;24.00;;;;;10.11;72.16;101984.72;146610;618;46010;-71
2024/02/19 02:53:36;;;;;;;;;25.25;23.50;;;;;10.09;72.13;101987.22;146606;584;46016;-71
2024/02/19 02:56:34;;;;;;;;;24.75;21.25;;;;;10.07;72.31;101986.19;146607;601;46020;-71
2024/02/19 02:59:27;;;;;;;;;25.75;22.00;;;;;10.07;72.25;101993.97;146604;700;47001;-70
2024/02/19 03:02:26;;;;;;;;;27.75;23.75;;;;;10.02;71.97;101997.91;146608;614;46010;-71
2024/02/19 03:05:27;;;;;;;;;24.00;20.50;;;;;10.01;73.03;101993.50;146606;612;46919;-70
2024/02/19 03:08:23;;;;;;;;;23.00;19.50;;;;;9.99;73.40;101996.78;146604;576;46020;-70
2024/02/19 03:11:19;;;;;;;;;21.00;20.00;;;;;9.99;73.19;102000.25;146604;572;46016;-70
2024/02/19 03:14:20;;;;;;;;;26.00;22.75;;;;;9.92;72.90;101991.12;146607;609;47010;-73
2024/02/19 03:17:24;;;;;;;;;22.75;21.00;;;;;9.90;73.21;102002.16;146608;695;46012;-73
2024/02/19 03:20:25;;;;;;;;;22.25;19.50;;;;;9.87;73.17;101997.66;146606;620;47010;-73
2024/02/19 03:23:28;;;;;;;;;27.00;23.25;;;;;9.86;73.20;102003.63;146603;609;46016;-80
2024/02/19 03:26:30;;;;;;;;;33.75;26.75;;;;;9.86;72.35;102003.63;146606;629;46012;-78
2024/02/19 03:29:22;;;;;;;;;71.25;56.50;;;;;9.16;73.00;101890.53;146603;604;46016;-78
2024/02/19 03:32:18;;;;;;;;;46.00;38.00;;;;;9.86;73.70;102010.50;146607;610;47010;-77
2024/02/19 03:35:18;;;;;;;;;22.75;22.75;;;;;9.85;73.18;102007.03;146603;710;47017;-77
2024/02/19 03:38:13;;;;;;;;;25.50;20.75;;;;;9.81;73.06;102015.38;146605;597;46020;-78
2024/02/19 03:41:14;;;;;;;;;25.00;21.00;;;;;9.81;73.60;102015.38;146605;604;46015;-77
2024/02/19 03:44:09;;;;;;;;;26.25;23.00;;;;;9.79;74.37;102011.75;146609;637;46020;-81
2024/02/19 03:47:17;;;;;;;;;33.00;27.50;;;;;9.77;73.91;102008.12;146603;574;46012;-75
2024/02/19 03:50:13;;;;;;;;;28.50;27.75;;;;;9.79;74.61;102008.25;146605;630;46012;-76
2024/02/19 03:53:29;;;;;;;;;29.75;26.75;;;;;9.72;75.05;101988.78;146604;571;46016;-71
2024/02/19 03:56:41;;;;;;;;;28.25;26.00;;;;;7.91;73.71;101653.44;146609;574;46021;-75
2024/02/19 03:59:56;;;;;;;;;;;;;;;;;;;;;
2024/02/19 04:02:52;;;;;;;;;28.75;25.75;;;;;9.92;75.35;101996.31;146608;609;46010;-74
2024/02/19 04:05:49;;;;;;;;;27.75;26.00;;;;;9.99;74.58;101996.78;146604;613;46016;-74
2024/02/19 04:08:45;;;;;;;;;29.75;25.75;;;;;10.02;74.89;101997.91;146602;628;46020;-74
2024/02/19 04:11:48;;;;;;;;;26.00;23.25;;;;;10.03;73.73;101991.94;146602;599;46012;-74
2024/02/19 04:14:50;;;;;;;;;31.75;28.50;;;;;10.05;73.63;101997.22;146607;577;46010;-74
2024/02/19 04:18:08;;;;;;;;;38.75;29.00;;;;;6.35;71.97;101377.47;146603;643;46016;-74
2024/02/19 04:21:20;;;;;;;;;35.50;30.00;;;;;10.09;73.70;101991.47;146608;602;46020;-74
2024/02/19 04:24:23;;;;;;;;;37.25;32.50;;;;;10.11;73.02;101990.81;146607;617;46016;-75
2024/02/19 04:27:18;;;;;;;;;45.25;36.00;;;;;10.13;73.10;101991.81;146610;591;46010;-73
2024/02/19 04:30:16;;;;;;;;;32.00;29.50;;;;;10.12;73.05;101987.44;146607;665;46012;-78
2024/02/19 04:33:10;;;;;;;;;32.75;28.75;;;;;10.11;72.80;101980.44;146607;659;46021;-73
2024/02/19 04:36:03;;;;;;;;;31.75;29.00;;;;;10.07;72.46;101983.59;146606;631;46016;-71
2024/02/19 04:39:00;;;;;;;;;35.00;30.75;;;;;10.03;72.74;101984.19;146605;582;46020;-72
2024/02/19 04:42:01;;;;;;;;;35.75;29.25;;;;;9.92;72.31;101973.00;146605;599;46014;-71
2024/02/19 04:45:06;;;;;;;;;28.25;26.00;;;;;9.83;72.32;101968.84;146609;591;46020;-72
2024/02/19 04:48:06;;;;;;;;;28.25;26.50;;;;;9.80;72.66;101982.47;146605;564;46013;-74
2024/02/19 04:51:18;;;;;;;;;28.50;24.75;;;;;9.74;72.91;101984.59;146607;674;46012;-72
2024/02/19 04:54:22;;;;;;;;;27.50;24.75;;;;;9.67;72.40;101980.66;146606;569;46016;-76
2024/02/19 04:57:20;;;;;;;;;26.25;26.25;;;;;7.91;72.69;101685.31;146610;588;46020;-74
2024/02/19 05:00:22;;;;;;;;;34.50;29.00;;;;;9.32;72.22;101946.94;146602;658;46914;-76
2024/02/19 05:03:24;;;;;;;;;25.25;24.50;;;;;9.52;72.68;101979.50;146609;567;45033;-78
2024/02/19 05:06:28;;;;;;;;;25.25;24.00;;;;;9.54;72.99;101985.69;146607;604;46012;-78
2024/02/19 05:09:29;;;;;;;;;30.50;26.75;;;;;9.59;73.46;101991.22;146604;591;46020;-77
2024/02/19 05:12:43;;;;;;;;;28.75;24.75;;;;;9.64;72.41;101990.78;146606;605;46016;-74
2024/02/19 05:15:44;;;;;;;;;38.00;31.25;;;;;9.66;73.39;101990.91;146607;596;47020;-73
2024/02/19 05:18:49;;;;;;;;;41.00;31.00;;;;;9.67;73.09;102011.72;146603;570;46013;-78
2024/02/19 05:21:51;;;;;;;;;34.75;30.00;;;;;9.68;72.60;101995.38;146607;590;47019;-75
2024/02/19 05:24:52;;;;;;;;;39.00;31.50;;;;;9.66;73.38;101990.91;146605;720;47017;-75
2024/02/19 05:27:46;;;;;;;;;40.00;32.00;;;;;9.61;75.12;101987.94;146611;570;46010;-75
2024/02/19 05:30:43;;;;;;;;;33.50;30.00;;;;;9.53;76.26;101994.22;146606;580;46016;-72
2024/02/19 05:33:42;;;;;;;;;36.00;29.75;;;;;9.52;76.34;101996.72;146606;596;47010;-69
2024/02/19 05:36:47;;;;;;;;;41.25;32.50;;;;;9.56;76.43;101996.16;146604;577;46012;-72
2024/02/19 05:39:39;;;;;;;;;38.00;33.25;;;;;9.62;76.52;101992.34;146601;570;46011;-74
2024/02/19 05:42:50;;;;;;;;;40.75;32.75;;;;;9.71;76.43;102000.81;146606;624;46016;-75
2024/02/19 05:45:54;;;;;;;;;38.00;32.75;;;;;9.83;76.54;102008.59;146608;606;46010;-68
2024/02/19 05:48:56;;;;;;;;;46.75;36.75;;;;;9.93;76.44;102005.00;146605;625;46017;-69
2024/02/19 05:52:14;;;;;;;;;55.75;43.25;;;;;10.00;76.32;102007.28;146608;569;46020;-68
2024/02/19 05:55:11;;;;;;;;;55.50;42.50;;;;;10.03;76.23;102012.69;146606;606;46017;-69
2024/02/19 05:58:04;;;;;;;;;62.00;47.00;;;;;10.04;76.43;102014.47;146606;617;46010;-71
2024/02/19 06:00:46;;;;;;;;;60.50;47.25;;;;;10.06;79.64;102018.09;146709;565;46023;-67
2024/02/19 06:03:47;;;;;;;;;58.50;46.25;;;;;10.15;77.13;102023.03;146618;592;47014;-71
2024/02/19 06:06:49;;;;;;;;;60.75;46.00;;;;;10.23;76.97;102023.59;146622;578;46020;-72
2024/02/19 06:10:04;;;;;;;;;62.00;47.25;;;;;10.32;76.14;102022.63;146616;610;48014;-71
2024/02/19 06:13:00;;;;;;;;;62.25;48.25;;;;;10.30;76.67;102015.50;146623;605;46010;-71
2024/02/19 06:15:53;;;;;;;;;60.50;47.00;;;;;10.36;75.98;102023.72;146616;591;46017;-72
2024/02/19 06:18:51;;;;;;;;;60.00;47.00;;;;;10.41;75.98;102027.56;146623;593;46020;-72
2024/02/19 06:22:00;;;;;;;;;57.25;45.50;;;;;10.44;75.88;102025.22;146614;726;47913;-74
2024/02/19 06:25:07;;;;;;;;;58.25;46.00;;;;;10.49;75.68;102022.94;146617;631;47010;-72
2024/02/19 06:28:02;;;;;;;;;46.75;36.50;;;;;10.55;75.72;102021.69;146614;581;48012;-72
2024/02/19 06:31:00;;;;;;;;;57.75;45.75;;;;;10.63;75.85;102030.91;146622;746;46011;-72
2024/02/19 06:34:02;;;;;;;;;59.75;46.50;;;;;10.72;75.97;102024.59;146616;610;46016;-72
2024/02/19 06:36:55;;;;;;;;;136.00;113.25;;;;;8.93;75.41;101699.03;146625;665;46011;-74
2024/02/19 06:39:50;;;;;;;;;130.25;110.50;;;;;10.83;75.56;102026.25;146629;703;46016;-74
2024/02/19 06:42:52;;;;;;;;;77.33;68.33;;;;;10.89;75.62;102037.06;146624;712;46045;-74
2024/02/19 06:45:52;;;;;;;;;82.33;72.67;;;;;10.91;74.56;102026.81;146624;569;46013;-72
2024/02/19 06:48:58;;;;;;;;;62.75;50.00;;;;;10.96;73.88;102031.50;146625;615;46010;-74
2024/02/19 06:51:57;;;;;;;;;63.75;48.75;;;;;10.99;74.32;102025.63;146615;646;46916;-74
2024/02/19 06:55:10;;;;;;;;;55.50;44.75;;;;;10.99;73.10;102023.03;146619;607;46033;-74
2024/02/19 06:58:09;;;;;;;;;57.25;45.25;;;;;11.00;73.60;102019.66;146615;552;46012;-74
2024/02/19 07:01:12;;;;;;;;;57.25;43.75;;;;;11.03;73.80;102017.28;146633;616;45021;-74
2024/02/19 07:04:06;;;;;;;;;54.25;43.25;;;;;11.02;74.55;102012.87;146634;571;45935;-75
2024/02/19 07:07:05;;;;;;;;;52.75;42.50;;;;;11.14;74.53;102020.63;146637;634;45020;-74
2024/02/19 07:10:05;;;;;;;;;50.50;39.25;;;;;11.33;75.33;102015.88;146633;572;45016;-73
2024/02/19 07:13:07;;;;;;;;;51.25;39.50;;;;;11.68;75.26;102012.19;146634;569;45010;-74
2024/02/19 07:16:12;;;;;;;;;46.75;38.50;;;;;12.18;74.98;102014.66;146632;572;45034;-76
2024/02/19 07:19:09;;;;;;;;;44.25;35.00;;;;;12.55;73.85;101988.41;146638;607;45010;-75
2024/02/19 07:22:12;;;;;;;;;44.25;36.50;;;;;13.10;71.35;102013.59;146637;583;45012;-75
2024/02/19 07:25:06;;;;;;;;;45.25;35.00;;;;;13.50;70.00;102007.34;146639;590;46010;-73
2024/02/19 07:28:02;;;;;;;;;39.75;31.75;;;;;13.90;67.93;102014.91;146636;581;45012;-74
2024/02/19 07:30:56;;;;;;;;;44.75;34.00;;;;;14.23;66.33;102023.75;146639;564;45010;-79
2024/02/19 07:33:55;;;;;;;;;45.00;36.00;;;;;14.52;65.45;102012.41;146633;639;46911;-78
2024/02/19 07:36:48;;;;;;;;;46.50;36.00;;;;;14.84;64.91;102011.56;146637;593;45021;-77
2024/02/19 07:39:48;;;;;;;;;52.00;40.25;;;;;15.19;64.10;102016.06;146634;578;46014;-75
2024/02/19 07:42:57;;;;;;;;;60.50;45.75;;;;;15.50;62.86;102009.81;146633;592;45012;-76
2024/02/19 07:46:02;;;;;;;;;;;;;;;;;;;;;
2024/02/19 07:49:02;;;;;;;;;50.25;40.00;;;;;15.59;60.86;102012.91;146636;571;45035;-74
2024/02/19 07:52:18;;;;;;;;;49.50;39.00;;;;;15.51;62.11;101997.62;146634;736;45017;-74
2024/02/19 07:55:15;;;;;;;;;44.75;36.75;;;;;15.53;62.67;101993.41;146635;564;46010;-73
2024/02/19 07:58:13;;;;;;;;;46.25;37.75;;;;;15.56;62.09;101996.16;146635;602;46013;-75
2024/02/19 08:01:10;;;;;;;;;51.00;39.75;;;;;15.56;62.30;101989.22;146637;582;45010;-74
2024/02/19 08:04:24;;;;;;;;;45.25;36.00;;;;;15.61;61.26;101985.13;146635;620;45010;-74
2024/02/19 08:07:20;;;;;;;;;46.25;37.00;;;;;15.72;61.70;101993.53;146643;591;46012;-69
2024/02/19 08:10:19;;;;;;;;;45.75;35.75;;;;;15.84;60.46;101993.28;146634;583;45033;-72
2024/02/19 08:13:22;;;;;;;;;46.75;34.50;;;;;15.83;60.22;101995.00;146636;621;46010;-74
2024/02/19 08:16:20;;;;;;;;;40.75;33.25;;;;;15.79;61.23;101992.13;146633;644;45014;-74
2024/02/19 08:19:32;;;;;;;;;35.50;30.75;;;;;15.81;61.07;101995.72;146637;602;46010;-71
2024/02/19 08:22:36;;;;;;;;;42.00;31.75;;;;;15.75;60.86;101992.81;146635;567;46012;-71
2024/02/19 08:25:32;;;;;;;;;39.00;33.50;;;;;15.72;61.43;101988.31;146636;602;45020;-70
2024/02/19 08:28:30;;;;;;;;;42.50;31.75;;;;;14.00;61.30;101699.97;146635;665;45012;-70
2024/02/19 08:31:28;;;;;;;;;31.50;30.50;;;;;15.63;61.00;101990.44;146636;634;45010;-71
2024/02/19 08:34:21;;;;;;;;;38.00;31.50;;;;;15.62;61.29;101989.53;146632;621;46016;-70
2024/02/19 08:37:20;;;;;;;;;34.00;29.25;;;;;15.62;62.21;101997.38;146635;609;45021;-70
2024/02/19 08:40:15;;;;;;;;;35.75;30.75;;;;;15.60;61.28;101993.78;146636;563;45016;-71
2024/02/19 08:43:13;;;;;;;;;34.75;30.25;;;;;13.96;61.46;101737.16;146636;583;45011;-71
2024/02/19 08:46:06;;;;;;;;;33.75;26.00;;;;;15.51;61.75;101982.84;146631;563;46913;-72
2024/02/19 08:48:57;;;;;;;;;29.25;26.75;;;;;15.40;61.26;101987.53;146636;569;45020;-71
2024/02/19 08:52:05;;;;;;;;;35.50;29.50;;;;;15.32;62.08;101990.56;146628;573;46016;-71
2024/02/19 08:55:17;;;;;;;;;28.75;26.00;;;;;15.28;61.73;101991.25;146633;664;45020;-71
2024/02/19 08:58:12;;;;;;;;;31.25;28.50;;;;;15.20;61.83;101988.19;146635;633;45014;-73
2024/02/19 09:01:16;;;;;;;;;32.25;29.00;;;;;15.09;61.88;101987.66;146635;625;45018;-67
2024/02/19 09:04:13;;;;;;;;;28.75;25.00;;;;;15.01;62.92;101984.66;146633;618;46014;-67
2024/02/19 09:07:05;;;;;;;;;37.00;31.00;;;;;15.00;63.25;101981.94;146636;571;45020;-70
2024/02/19 09:10:14;;;;;;;;;33.25;29.25;;;;;15.01;63.14;101982.03;146630;578;46014;-72
2024/02/19 09:13:16;;;;;;;;;36.00;29.50;;;;;14.89;63.77;101977.84;146635;589;46038;-72
2024/02/19 09:16:11;;;;;;;;;27.75;24.50;;;;;14.87;63.36;101985.63;146629;593;46012;-72
2024/02/19 09:19:26;;;;;;;;;28.50;28.00;;;;;12.96;63.63;101670.81;146637;587;45010;-70
2024/02/19 09:22:27;;;;;;;;;25.25;25.25;;;;;14.54;64.57;101979.44;146634;600;45014;-70
2024/02/19 09:25:25;;;;;;;;;35.00;31.75;;;;;14.43;64.69;101978.81;146636;587;45020;-71
2024/02/19 09:28:21;;;;;;;;;31.25;27.50;;;;;14.37;64.99;101975.87;146634;629;45017;-68
2024/02/19 09:31:25;;;;;;;;;33.25;28.00;;;;;14.36;64.82;101981.91;146635;596;45029;-70
2024/02/19 09:34:31;;;;;;;;;29.00;21.75;;;;;14.32;63.54;101973.00;146632;619;45012;-71
2024/02/19 09:37:36;;;;;;;;;25.75;22.00;;;;;14.42;63.30;101981.34;146635;650;45020;-71
2024/02/19 09:40:38;;;;;;;;;26.50;20.75;;;;;14.47;62.05;101978.19;146629;596;45915;-70
2024/02/19 09:43:36;;;;;;;;;29.50;23.50;;;;;14.56;62.15;101975.22;146635;590;46010;-70
2024/02/19 09:46:33;;;;;;;;;28.00;24.75;;;;;14.69;63.34;101974.16;146634;622;45035;-71
2024/02/19 09:49:32;;;;;;;;;30.75;28.00;;;;;14.82;63.37;101963.56;146637;621;45010;-71
2024/02/19 09:53:14;;;;;;;;;30.25;28.00;;;;;14.95;62.53;101952.97;146634;569;46022;-71
2024/02/19 09:56:17;;;;;;;;;47.00;38.00;;;;;15.17;63.03;101965.44;146637;609;46010;-70
2024/02/19 09:59:15;;;;;;;;;49.25;38.00;;;;;15.33;62.86;101964.53;146624;578;46016;-70
2024/02/19 10:02:11;;;;;;;;;46.00;38.00;;;;;15.58;63.98;101953.59;146614;589;46020;-70
2024/02/19 10:05:13;;;;;;;;;47.25;38.50;;;;;15.88;62.17;101955.97;146607;564;47012;-71
2024/02/19 10:08:13;;;;;;;;;53.50;41.00;;;;;16.15;62.02;101944.25;146611;629;46020;-71
2024/02/19 10:11:12;;;;;;;;;53.75;41.00;;;;;16.36;60.89;101940.84;146609;655;46016;-71
2024/02/19 10:14:14;;;;;;;;;52.00;41.25;;;;;16.59;58.54;101942.81;146614;616;46010;-70
2024/02/19 10:17:12;;;;;;;;;45.50;37.25;;;;;16.81;57.90;101938.59;146607;574;47012;-70
2024/02/19 10:20:16;;;;;;;;;44.00;35.25;;;;;17.01;57.35;101931.63;146611;566;46029;-71
2024/02/19 10:23:15;;;;;;;;;31.25;28.25;;;;;17.27;55.59;101927.53;146608;571;46016;-73
2024/02/19 10:26:12;;;;;;;;;35.75;30.50;;;;;15.73;55.88;101642.31;146613;621;46020;-69
2024/02/19 10:29:11;;;;;;;;;32.75;29.00;;;;;17.31;54.41;101932.06;146608;588;46016;-69
2024/02/19 10:32:13;;;;;;;;;25.50;19.50;;;;;17.29;55.80;101920.63;146613;569;46010;-69
2024/02/19 10:35:15;;;;;;;;;38.75;33.75;;;;;17.30;55.81;101931.16;146609;641;46017;-70
2024/02/19 10:38:12;;;;;;;;;23.00;23.00;;;;;17.28;54.40;101919.72;146613;681;46020;-69
2024/02/19 10:41:10;;;;;;;;;22.50;20.50;;;;;17.27;54.28;101917.03;146606;571;47012;-70
2024/02/19 10:44:33;;;;;;;;;25.25;21.00;;;;;17.17;53.15;101907.87;146611;665;46028;-69
2024/02/19 10:47:28;;;;;;;;;22.75;20.25;;;;;17.04;54.74;101910.78;146609;629;46018;-69
2024/02/19 10:50:35;;;;;;;;;33.50;24.25;;;;;17.01;55.52;101913.28;146614;619;45021;-71
2024/02/19 10:53:43;;;;;;;;;21.00;18.75;;;;;16.92;54.91;101897.16;146610;589;46016;-71
2024/02/19 10:57:08;;;;;;;;;22.00;18.50;;;;;13.51;56.51;101335.16;146613;634;47010;-72
2024/02/19 11:00:29;;;;;;;;;28.75;24.50;;;;;13.31;55.90;101323.78;146612;564;46026;-70
2024/02/19 11:03:44;;;;;;;;;27.75;23.75;;;;;16.35;56.75;101889.31;146610;579;47013;-71
2024/02/19 11:07:04;;;;;;;;;25.75;24.25;;;;;14.03;58.15;101559.31;146616;587;46014;-70
2024/02/19 11:10:29;;;;;;;;;19.25;19.25;;;;;12.31;58.65;101226.72;146612;612;46010;-69
2024/02/19 11:13:29;;;;;;;;;38.25;30.00;;;;;16.19;59.32;101881.56;146616;698;46012;-70
2024/02/19 11:16:22;;;;;;;;;37.00;30.75;;;;;16.31;59.72;101869.97;146614;595;46020;-68
2024/02/19 11:19:26;;;;;;;;;32.00;27.50;;;;;16.33;59.92;101877.91;146611;570;47013;-69
2024/02/19 11:22:30;;;;;;;;;28.25;26.75;;;;;16.14;59.57;101865.69;146611;606;47010;-69
2024/02/19 11:25:41;;;;;;;;;23.75;22.75;;;;;16.07;60.55;101869.69;146606;587;47012;-70
2024/02/19 11:28:35;;;;;;;;;22.75;20.00;;;;;16.07;61.47;101871.44;146613;645;46029;-67
2024/02/19 11:31:43;;;;;;;;;27.50;24.25;;;;;15.89;61.96;101869.75;146612;599;46016;-68
2024/02/19 11:34:40;;;;;;;;;22.75;21.25;;;;;15.48;61.64;101857.22;146616;583;46031;-71
2024/02/19 11:37:41;;;;;;;;;23.25;22.25;;;;;15.35;62.52;101854.84;146614;573;46037;-71
2024/02/19 11:40:37;;;;;;;;;19.00;18.50;;;;;14.95;65.38;101863.25;146613;639;47013;-71
2024/02/19 11:43:35;;;;;;;;;24.25;22.25;;;;;14.72;65.75;101869.91;146611;584;46016;-68
2024/02/19 11:46:28;;;;;;;;;24.50;20.75;;;;;14.59;65.32;101859.63;146612;635;47010;-70
2024/02/19 11:49:23;;;;;;;;;24.25;22.25;;;;;14.53;65.36;101850.66;146611;576;46017;-70
2024/02/19 11:52:28;;;;;;;;;18.00;18.00;;;;;14.45;65.06;101853.63;146613;586;47012;-70
2024/02/19 11:55:33;;;;;;;;;19.25;19.00;;;;;14.32;65.69;101852.97;146611;662;47016;-67
2024/02/19 11:58:43;;;;;;;;;30.50;24.25;;;;;14.28;65.80;101851.03;146619;615;47010;-72
2024/02/19 12:01:43;;;;;;;;;23.50;20.25;;;;;14.24;67.11;101842.97;146610;613;46914;-70
2024/02/19 12:04:45;;;;;;;;;31.00;29.00;;;;;13.49;66.65;101738.06;146613;668;46020;-71
2024/02/19 12:07:41;;;;;;;;;23.00;21.75;;;;;14.18;66.64;101837.41;146612;585;46016;-72
2024/02/19 12:10:40;;;;;;;;;23.50;21.75;;;;;12.70;65.02;101612.94;146617;651;46021;-71
2024/02/19 12:13:38;;;;;;;;;28.25;24.50;;;;;14.13;64.75;101831.94;146613;604;46016;-69
2024/02/19 12:17:09;;;;;;;;;29.25;27.00;;;;;14.09;64.61;101825.66;146610;619;47012;-71
2024/02/19 12:20:01;;;;;;;;;23.75;21.50;;;;;14.01;64.02;101828.66;146611;607;46016;-70
2024/02/19 12:23:05;;;;;;;;;21.50;19.00;;;;;13.97;64.09;101827.59;146617;612;46020;-71
2024/02/19 12:26:03;;;;;;;;;25.00;23.25;;;;;13.91;63.59;101826.34;146610;617;47039;-69
2024/02/19 12:29:15;;;;;;;;;24.00;22.25;;;;;13.75;62.82;101804.66;146613;611;46023;-71
2024/02/19 12:32:45;;;;;;;;;25.50;22.50;;;;;10.15;62.65;101171.28;146610;575;46015;-69
2024/02/19 12:35:46;;;;;;;;;24.50;22.75;;;;;13.83;62.52;101812.87;146614;592;46020;-69
2024/02/19 12:38:45;;;;;;;;;22.50;21.00;;;;;13.78;63.06;101820.47;146611;659;47012;-70
2024/02/19 12:41:48;;;;;;;;;29.25;26.25;;;;;13.88;62.38;101807.94;146619;606;46018;-70
2024/02/19 12:44:45;;;;;;;;;17.00;14.75;;;;;13.88;62.09;101811.44;146610;588;47012;-71
2024/02/19 12:47:40;;;;;;;;;12.25;10.00;;;;;13.94;61.39;101803.06;146618;674;46021;-70
2024/02/19 12:50:37;;;;;;;;;12.00;11.25;;;;;13.85;59.67;101816.47;146616;600;46014;-68
2024/02/19 12:53:40;;;;;;;;;16.25;14.50;;;;;13.78;60.50;101794.41;146621;575;46010;-69
2024/02/19 12:56:36;;;;;;;;;17.75;14.25;;;;;13.82;61.19;101779.81;146613;595;46016;-69
2024/02/19 12:59:50;;;;;;;;;18.25;17.75;;;;;13.96;61.25;101784.09;146614;584;47020;-70
2024/02/19 13:02:50;;;;;;;;;16.25;15.00;;;;;14.08;60.09;101781.22;146615;718;46016;-70
2024/02/19 13:06:12;;;;;;;;;;;;;;;;;;;;;
2024/02/19 13:09:10;;;;;;;;;15.75;14.50;;;;;13.93;60.05;101715.22;146612;574;47015;-69
2024/02/19 13:12:15;;;;;;;;;14.25;13.50;;;;;14.31;59.44;101766.81;146617;570;46010;-70
2024/02/19 13:15:22;;;;;;;;;12.50;11.75;;;;;14.30;58.56;101765.03;146614;613;46016;-69
2024/02/19 13:18:24;;;;;;;;;12.50;10.25;;;;;14.23;58.46;101771.59;146618;597;47012;-69
2024/02/19 13:21:27;;;;;;;;;14.50;13.00;;;;;14.27;59.73;101764.88;146613;670;48012;-71
2024/02/19 13:24:32;;;;;;;;;14.50;13.25;;;;;14.32;58.88;101761.66;146615;587;46021;-70
2024/02/19 13:27:31;;;;;;;;;13.25;12.50;;;;;14.40;58.61;101772.50;146613;661;46016;-75
2024/02/19 13:30:26;;;;;;;;;18.75;15.50;;;;;14.45;58.09;101760.56;146618;624;46010;-70
2024/02/19 13:33:18;;;;;;;;;14.00;11.50;;;;;14.50;58.86;101773.88;146611;570;46914;-71
2024/02/19 13:36:16;;;;;;;;;21.25;17.75;;;;;12.88;59.35;101476.84;146618;703;46010;-71
2024/02/19 13:39:15;;;;;;;;;13.25;12.00;;;;;14.54;57.76;101765.41;146608;619;46016;-73
2024/02/19 13:42:13;;;;;;;;;15.00;13.25;;;;;14.54;59.04;101766.31;146609;632;47010;-75
2024/02/19 13:45:24;;;;;;;;;14.75;14.75;;;;;11.84;56.89;101328.06;146611;727;46915;-74
2024/02/19 13:48:24;;;;;;;;;10.50;10.50;;;;;14.28;56.71;101769.25;146614;596;47021;-71
2024/02/19 13:51:29;;;;;;;;;17.00;15.00;;;;;14.10;58.05;101757.03;146615;580;46016;-73